Time;durP1;ratioP1;P1;durP2;ratioP2;P2;SDS_P1;SDS_P2;PMS_P1;PMS_P2;Temp;Humidity;BMP_temperature;BMP_pressure;BME280_temperature;BME280_humidity;BME280_pressure;Samples;Min_cycle;Max_cycle;Signal;HPM_P1;HPM_P2
2023/02/15 00:05:05;;;;;;;35.88;20.55;;;;;;;3.97;70.37;99387.31;10430358;28;20136;-75
2023/02/15 00:10:26;;;;;;;33.70;20.35;;;;;;;4.10;70.39;99389.50;10436911;28;20045;-75
2023/02/15 00:15:47;;;;;;;34.08;19.60;;;;;;;4.10;70.06;99379.19;10465241;28;20052;-75
2023/02/15 00:21:09;;;;;;;37.00;21.50;;;;;;;3.96;71.46;99385.81;10435535;28;20102;-74
2023/02/15 00:26:30;;;;;;;37.53;22.20;;;;;;;3.88;70.48;99382.81;10421526;28;20041;-75
2023/02/15 00:31:51;;;;;;;32.75;19.50;;;;;;;3.88;70.81;99371.78;10434866;28;20060;-75
2023/02/15 00:37:13;;;;;;;33.35;19.88;;;;;;;3.98;70.53;99378.50;10448908;28;20069;-75
2023/02/15 00:42:33;;;;;;;36.72;20.27;;;;;;;4.05;70.70;99368.91;10434124;28;20379;-75
2023/02/15 00:47:54;;;;;;;31.33;18.80;;;;;;;3.99;70.88;99370.97;10434379;28;20075;-75
2023/02/15 00:53:15;;;;;;;32.17;19.65;;;;;;;3.91;71.05;99365.22;10434168;28;20371;-75
2023/02/15 00:58:36;;;;;;;34.75;20.73;;;;;;;3.76;71.81;99355.75;10420963;28;20040;-75
2023/02/15 01:03:57;;;;;;;37.47;21.48;;;;;;;3.82;71.34;99357.22;10433695;28;20048;-75
2023/02/15 01:09:19;;;;;;;35.50;20.95;;;;;;;3.75;71.16;99355.00;10451779;28;20049;-78
2023/02/15 01:14:40;;;;;;;35.72;20.27;;;;;;;3.70;71.48;99359.31;10456544;28;20043;-78
2023/02/15 01:20:01;;;;;;;38.03;22.08;;;;;;;3.62;71.69;99347.28;10458529;28;20055;-77
2023/02/15 01:25:23;;;;;;;39.30;21.63;;;;;;;3.76;71.33;99350.97;10460371;28;20040;-77
2023/02/15 01:30:44;;;;;;;36.88;20.83;;;;;;;3.77;71.39;99341.44;10473965;28;20049;-77
2023/02/15 01:36:05;;;;;;;36.05;21.58;;;;;;;3.69;72.07;99330.19;10446081;28;20482;-77
2023/02/15 01:41:27;;;;;;;35.58;20.02;;;;;;;3.61;71.81;99329.22;10473510;28;20041;-77
2023/02/15 01:46:52;;;;;;;34.85;20.30;;;;;;;3.61;71.74;99322.94;10487438;28;20429;-77
2023/02/15 01:52:16;;;;;;;37.00;20.67;;;;;;;3.62;72.42;99319.66;10460008;28;20044;-78
2023/02/15 01:57:37;;;;;;;37.10;21.05;;;;;;;3.49;72.61;99310.47;10445560;28;20063;-78
2023/02/15 02:02:58;;;;;;;34.60;19.83;;;;;;;3.45;72.27;99299.66;10458604;28;20448;-75
2023/02/15 02:08:19;;;;;;;40.15;21.15;;;;;;;3.45;72.04;99297.66;10458606;28;20052;-75
2023/02/15 02:13:41;;;;;;;35.00;20.20;;;;;;;3.47;72.57;99296.38;10458651;28;20036;-75
2023/02/15 02:19:33;;;;;;;40.38;22.80;;;;;;;3.48;72.87;99303.44;10458000;28;20045;-75
2023/02/15 02:25:00;;;;;;;35.72;20.80;;;;;;;3.44;72.30;99292.66;10485381;28;20041;-74
2023/02/15 02:30:43;;;;;;;42.67;22.73;;;;;;;3.48;71.60;99286.88;10484374;28;20040;-75
2023/02/15 02:36:10;;;;;;;40.65;21.65;;;;;;;3.39;72.25;99279.63;10471303;28;20037;-75
2023/02/15 02:41:32;;;;;;;38.97;20.38;;;;;;;3.30;72.26;99283.44;10484704;28;20382;-75
2023/02/15 02:46:58;;;;;;;37.63;20.48;;;;;;;3.24;72.73;99290.97;10470465;28;20051;-75
2023/02/15 02:52:44;;;;;;;39.92;22.20;;;;;;;3.23;72.77;99286.72;10467377;28;20428;-75
2023/02/15 02:58:20;;;;;;;37.97;21.23;;;;;;;3.23;72.39;99277.69;10452645;28;20482;-75
2023/02/15 03:03:47;;;;;;;39.85;21.50;;;;;;;3.22;72.82;99284.47;10455577;28;20072;-75
2023/02/15 03:09:14;;;;;;;37.67;21.48;;;;;;;3.10;73.11;99269.97;10456427;28;20055;-75
2023/02/15 03:14:35;;;;;;;39.22;21.23;;;;;;;3.04;73.44;99278.25;10456118;28;20068;-75
2023/02/15 03:20:00;;;;;;;40.55;21.23;;;;;;;3.07;72.97;99276.47;10455902;28;20086;-75
2023/02/15 03:25:23;;;;;;;31.60;17.80;;;;;;;3.17;73.22;99281.19;10455812;28;20044;-74
2023/02/15 03:30:45;;;;;;;39.85;20.88;;;;;;;3.22;73.10;99265.91;10469198;28;20052;-75
2023/02/15 03:36:25;;;;;;;40.88;22.25;;;;;;;3.25;73.08;99253.84;10468960;28;20037;-75
2023/02/15 03:42:11;;;;;;;46.38;22.98;;;;;;;3.10;73.06;99256.91;10456497;28;20040;-75
2023/02/15 03:47:37;;;;;;;39.00;21.83;;;;;;;2.71;74.02;99248.75;10486039;28;20072;-75
2023/02/15 03:52:59;;;;;;;39.95;19.05;;;;;;;2.77;73.79;99245.97;10455017;28;20044;-75
2023/02/15 04:04:09;;;;;;;40.63;21.33;;;;;;;2.96;74.20;99257.22;10473437;28;20061;-75
2023/02/15 04:26:31;;;;;;;41.47;20.80;;;;;;;2.69;73.71;99247.75;10459395;28;20048;-75
2023/02/15 04:31:53;;;;;;;40.90;20.25;;;;;;;2.65;73.84;99252.78;10454365;28;20123;-75
2023/02/15 04:37:14;;;;;;;45.00;21.70;;;;;;;2.66;73.49;99251.53;10453925;28;20041;-75
2023/02/15 04:42:35;;;;;;;37.60;18.23;;;;;;;2.59;74.27;99241.75;10467711;28;20474;-75
2023/02/15 04:47:55;;;;;;;36.42;19.02;;;;;;;2.58;73.86;99243.75;10473041;28;20048;-75
2023/02/15 04:53:18;;;;;;;38.33;19.42;;;;;;;2.62;74.36;99243.53;10456081;28;20048;-75
2023/02/15 04:58:41;;;;;;;38.47;18.83;;;;;;;2.64;74.21;99245.78;10458825;28;20090;-78
2023/02/15 05:04:03;;;;;;;35.47;18.60;;;;;;;2.55;74.21;99228.25;10470222;28;20452;-77
2023/02/15 05:09:24;;;;;;;42.70;20.25;;;;;;;2.48;74.76;99234.25;10469966;28;20044;-78
2023/02/15 05:14:45;;;;;;;44.08;20.95;;;;;;;2.28;74.38;99229.03;10498022;28;20040;-77
2023/02/15 05:20:06;;;;;;;41.85;19.27;;;;;;;2.11;74.76;99233.78;10470992;28;20474;-77
2023/02/15 05:31:10;;;;;;;40.63;19.48;;;;;;;1.93;75.26;99246.06;10486110;28;20083;-77
2023/02/15 05:36:31;;;;;;;39.88;18.90;;;;;;;2.19;75.20;99232.03;10483563;28;20055;-77
2023/02/15 05:41:53;;;;;;;42.88;20.55;;;;;;;2.33;75.22;99239.31;10470348;28;20059;-78
2023/02/15 05:47:16;;;;;;;44.17;18.52;;;;;;;2.27;74.20;99242.06;10482388;28;20081;-77
2023/02/15 05:52:37;;;;;;;38.72;17.23;;;;;;;2.21;75.07;99243.31;10483015;28;20071;-78
2023/02/15 05:57:58;;;;;;;40.38;18.35;;;;;;;2.15;75.07;99237.81;10467703;28;20398;-77
2023/02/15 06:03:19;;;;;;;35.75;18.45;;;;;;;2.05;75.18;99249.59;10467669;28;20048;-77
2023/02/15 06:08:40;;;;;;;43.67;19.58;;;;;;;1.95;75.79;99252.59;10453628;28;20063;-77
2023/02/15 06:14:01;;;;;;;48.65;20.08;;;;;;;1.87;75.07;99251.56;10466917;28;20098;-77
2023/02/15 06:19:22;;;;;;;42.83;19.58;;;;;;;2.04;75.81;99254.34;10449073;28;20612;-77
2023/02/15 06:24:43;;;;;;;46.28;19.85;;;;;;;2.20;75.11;99261.09;10443110;28;20040;-78
2023/02/15 06:30:06;;;;;;;44.25;21.27;;;;;;;2.26;75.64;99253.59;10467169;28;20404;-78
2023/02/15 06:35:27;;;;;;;43.25;20.08;;;;;;;2.31;74.83;99261.09;10480650;28;20410;-78
2023/02/15 06:40:49;;;;;;;47.50;20.88;;;;;;;2.37;75.34;99272.13;10466803;28;20496;-78
2023/02/15 06:46:10;;;;;;;43.70;21.45;;;;;;;2.40;74.87;99271.09;10447895;28;20044;-77
2023/02/15 06:51:31;;;;;;;43.40;19.80;;;;;;;2.44;74.57;99277.13;10453960;28;20040;-77
2023/02/15 06:56:52;;;;;;;44.38;20.95;;;;;;;2.43;75.02;99279.13;10466665;28;20056;-77
2023/02/15 07:02:13;;;;;;;40.88;18.20;;;;;;;2.38;74.88;99277.13;10444737;28;20560;-77
2023/02/15 07:07:35;;;;;;;40.70;19.00;;;;;;;2.36;74.85;99287.16;10452163;28;20104;-77
2023/02/15 07:12:58;;;;;;;43.28;19.00;;;;;;;2.29;74.84;99293.91;10442848;28;20773;-78
2023/02/15 07:18:19;;;;;;;41.45;19.23;;;;;;;2.24;74.67;99276.13;10428156;28;20048;-77
2023/02/15 07:23:40;;;;;;;38.55;17.00;;;;;;;2.18;74.64;99283.63;10439878;28;20379;-77
2023/02/15 07:29:01;;;;;;;38.63;17.00;;;;;;;2.33;74.99;99272.38;10452759;28;20106;-78
2023/02/15 07:34:22;;;;;;;39.60;17.95;;;;;;;2.38;74.99;99263.34;10454735;28;20062;-78
2023/02/15 07:39:44;;;;;;;42.17;19.50;;;;;;;2.36;74.54;99257.59;10453981;28;20043;-78
2023/02/15 07:45:05;;;;;;;41.42;18.23;;;;;;;2.34;74.54;99249.06;10454516;28;20044;-78
2023/02/15 07:50:26;;;;;;;42.50;19.83;;;;;;;2.35;74.21;99234.03;10455319;28;20040;-77
2023/02/15 07:55:47;;;;;;;38.42;17.85;;;;;;;2.30;74.14;99226.50;10452893;28;20052;-78
2023/02/15 08:01:08;;;;;;;41.58;19.45;;;;;;;2.29;74.46;99227.78;10468063;28;20135;-78
2023/02/15 08:06:32;;;;;;;40.28;17.85;;;;;;;2.13;73.63;99236.81;10430745;28;20596;-77
2023/02/15 08:11:53;;;;;;;38.35;16.25;;;;;;;2.08;74.21;99234.81;10443960;28;20055;-78
2023/02/15 08:17:14;;;;;;;38.72;17.38;;;;;;;2.37;74.42;99239.03;10473454;28;20044;-78
2023/02/15 08:22:35;;;;;;;42.00;17.85;;;;;;;2.48;74.70;99234.25;10472262;28;20492;-78
2023/02/15 08:27:56;;;;;;;37.60;16.77;;;;;;;2.51;74.16;99226.97;10502376;28;20051;-78
2023/02/15 08:33:17;;;;;;;37.40;16.50;;;;;;;2.46;74.30;99236.78;10461591;28;20495;-78
2023/02/15 08:38:39;;;;;;;36.70;16.55;;;;;;;2.32;74.69;99237.81;10476101;28;20536;-78
2023/02/15 08:44:01;;;;;;;41.42;18.38;;;;;;;2.28;74.75;99237.28;10461587;28;20064;-77
2023/02/15 08:49:23;;;;;;;34.63;16.02;;;;;;;2.31;74.55;99225.25;10475743;28;20043;-78
2023/02/15 08:54:44;;;;;;;35.20;16.90;;;;;;;2.36;74.80;99221.75;10461511;28;20044;-78
2023/02/15 09:00:06;;;;;;;36.75;16.02;;;;;;;2.52;74.16;99226.50;10488918;28;20475;-78
2023/02/15 09:05:27;;;;;;;34.78;17.20;;;;;;;2.77;73.92;99216.38;10486442;28;20057;-77
2023/02/15 09:10:48;;;;;;;34.00;16.00;;;;;;;2.98;74.06;99219.56;10474639;28;20037;-78
2023/02/15 09:16:09;;;;;;;39.97;17.63;;;;;;;3.11;73.95;99225.31;10435024;28;20040;-78
2023/02/15 09:21:30;;;;;;;37.60;17.50;;;;;;;3.09;73.02;99225.06;10486284;28;20534;-78
2023/02/15 09:26:52;;;;;;;30.65;14.80;;;;;;;3.04;73.32;99212.03;10488137;28;20044;-77
2023/02/15 09:32:14;;;;;;;30.85;15.10;;;;;;;3.03;73.23;99218.81;10486791;28;20052;-78
2023/02/15 09:37:36;;;;;;;37.67;17.02;;;;;;;3.05;73.21;99215.53;10473894;28;20368;-78
2023/02/15 09:43:09;;;;;;;38.22;17.13;;;;;;;3.03;72.28;99218.06;10473607;28;20045;-78
2023/02/15 09:48:39;;;;;;;33.10;15.63;;;;;;;2.98;72.38;99214.06;10461598;28;20041;-78
2023/02/15 09:54:24;;;;;;;32.60;15.48;;;;;;;3.15;72.58;99206.47;10482896;28;20044;-78
2023/02/15 10:00:28;;;;;;;33.33;15.57;;;;;;;3.27;72.46;99212.66;10447639;28;20063;-77
2023/02/15 10:06:24;;;;;;;35.40;17.58;;;;;;;3.45;72.00;99205.81;10466966;28;20488;-78
2023/02/15 10:11:49;;;;;;;35.10;17.08;;;;;;;3.58;72.69;99213.53;10460857;28;20045;-77
2023/02/15 10:17:40;;;;;;;33.25;16.40;;;;;;;3.62;72.31;99209.22;10458358;28;20480;-79
2023/02/15 10:23:21;;;;;;;37.03;17.98;;;;;;;3.73;71.98;99203.59;10431057;28;20071;-78
2023/02/15 10:28:51;;;;;;;32.47;15.77;;;;;;;3.84;72.10;99202.03;10458270;28;20116;-78
2023/02/15 10:34:15;;;;;;;35.83;17.08;;;;;;;3.90;71.97;99197.97;10430946;28;20055;-78
2023/02/15 10:39:49;;;;;;;38.47;17.73;;;;;;;4.00;71.93;99192.84;10443817;28;20061;-80
2023/02/15 10:45:24;;;;;;;35.83;16.63;;;;;;;4.03;70.78;99189.06;10470594;28;20608;-79
2023/02/15 10:50:51;;;;;;;;;;;;;;;3.84;70.17;99177.16;10498979;28;20052;-78
2023/02/15 10:56:31;;;;;;;38.55;18.42;;;;;;;3.60;70.16;99181.38;10468432;28;19921;-78
2023/02/15 11:01:58;;;;;;;36.67;17.58;;;;;;;3.66;70.00;99175.78;10494609;28;20056;-78
2023/02/15 11:07:33;;;;;;;34.13;17.17;;;;;;;3.37;70.24;99157.91;10468302;28;20120;-78
2023/02/15 11:12:55;;;;;;;38.35;17.45;;;;;;;3.33;71.23;99152.69;10455658;28;20109;-77
2023/02/15 11:18:30;;;;;;;35.35;17.05;;;;;;;3.49;70.92;99153.84;10455612;28;20045;-78
2023/02/15 11:23:51;;;;;;;33.83;17.90;;;;;;;3.49;70.53;99158.63;10470160;28;20040;-76
2023/02/15 11:29:39;;;;;;;34.28;16.92;;;;;;;3.47;70.24;99161.84;10469696;28;20040;-80
2023/02/15 11:35:09;;;;;;;34.47;17.48;;;;;;;3.54;69.79;99153.03;10454232;28;20070;-77
2023/02/15 11:40:31;;;;;;;30.27;16.95;;;;;;;3.38;69.72;99143.63;10441389;28;20395;-80
2023/02/15 11:45:52;;;;;;;31.75;16.88;;;;;;;3.41;69.96;99139.09;10414165;28;20475;-80
2023/02/15 11:51:17;;;;;;;35.20;18.38;;;;;;;3.54;70.34;99125.41;10441509;28;20049;-78
2023/02/15 11:56:39;;;;;;;31.88;17.83;;;;;;;3.58;69.76;99123.16;10440793;28;20040;-77
2023/02/15 12:02:00;;;;;;;31.75;16.42;;;;;;;3.79;70.16;99114.44;10449448;28;20417;-77
2023/02/15 12:07:27;;;;;;;26.70;15.73;;;;;;;4.19;70.60;99110.03;10477699;28;20120;-77
2023/02/15 12:12:48;;;;;;;29.73;16.83;;;;;;;4.52;69.44;99108.91;10454441;28;20045;-79
2023/02/15 12:18:39;;;;;;;29.75;16.65;;;;;;;4.57;69.45;99102.56;10454577;28;20471;-77
2023/02/15 12:24:09;;;;;;;29.38;17.17;;;;;;;4.67;68.31;99087.09;10485120;28;20052;-80
2023/02/15 12:29:41;;;;;;;32.30;17.45;;;;;;;4.96;68.86;99085.47;10455680;28;20394;-78
2023/02/15 12:35:13;;;;;;;32.67;16.98;;;;;;;4.82;67.51;99076.31;10456071;28;20088;-78
2023/02/15 12:40:35;;;;;;;32.42;17.60;;;;;;;4.72;67.65;99072.44;10468217;28;20088;-78
2023/02/15 12:46:23;;;;;;;27.75;15.40;;;;;;;4.79;66.33;99060.03;10454323;28;20044;-79
2023/02/15 12:51:47;;;;;;;31.13;17.23;;;;;;;4.75;66.39;99062.38;10468183;28;20291;-78
2023/02/15 12:57:15;;;;;;;26.20;15.35;;;;;;;4.91;67.45;99055.09;10479944;28;20504;-77
2023/02/15 13:02:42;;;;;;;27.33;14.82;;;;;;;5.13;66.64;99050.00;10447739;28;20552;-77
2023/02/15 13:08:14;;;;;;;25.58;15.10;;;;;;;5.24;66.69;99049.06;10451597;28;20045;-77
2023/02/15 13:13:45;;;;;;;26.13;15.95;;;;;;;5.30;66.81;99049.72;10475278;28;20044;-77
2023/02/15 13:19:50;;;;;;;25.98;14.70;;;;;;;5.33;66.97;99040.38;10462377;28;20041;-77
2023/02/15 13:25:22;;;;;;;22.70;13.70;;;;;;;5.26;66.95;99043.00;10352673;28;20404;-78
2023/02/15 13:30:44;;;;;;;25.50;13.73;;;;;;;4.99;65.73;99042.88;10439126;28;20419;-78
2023/02/15 13:36:10;;;;;;;20.88;13.07;;;;;;;4.73;65.84;99043.53;10419301;28;20479;-78
2023/02/15 13:41:33;;;;;;;22.30;13.05;;;;;;;4.42;66.32;99044.16;10432792;28;20045;-77
2023/02/15 13:46:59;;;;;;;19.80;12.35;;;;;;;4.35;65.95;99040.00;10432969;28;20057;-77
2023/02/15 13:52:24;;;;;;;18.13;12.03;;;;;;;4.23;66.29;99028.31;10446052;28;20420;-77
2023/02/15 13:58:19;;;;;;;19.20;11.32;;;;;;;4.34;66.64;99030.19;10443853;28;20453;-74
2023/02/15 14:03:59;;;;;;;19.85;11.15;;;;;;;4.37;66.20;99022.88;10473226;28;20136;-72
2023/02/15 14:09:40;;;;;;;19.92;12.10;;;;;;;4.15;66.29;99021.91;10474440;28;20082;-72
2023/02/15 14:15:20;;;;;;;17.83;10.98;;;;;;;4.16;66.55;99023.38;10472122;28;20478;-73
2023/02/15 14:21:05;;;;;;;27.23;12.20;;;;;;;4.20;66.82;99012.03;10471588;28;20040;-74
2023/02/15 14:26:58;;;;;;;20.50;12.50;;;;;;;4.05;66.05;99009.69;10472678;28;20060;-73
2023/02/15 14:32:46;;;;;;;18.77;11.88;;;;;;;3.98;66.17;99007.50;10485502;28;20067;-72
2023/02/15 14:38:15;;;;;;;19.33;11.52;;;;;;;3.79;66.71;99003.97;10471553;28;20048;-72
2023/02/15 14:43:45;;;;;;;20.63;12.05;;;;;;;3.92;66.63;99006.81;10471282;28;20040;-73
2023/02/15 14:49:26;;;;;;;18.27;10.13;;;;;;;4.28;67.02;98999.88;10455173;28;20383;-73
2023/02/15 14:54:48;;;;;;;19.60;11.40;;;;;;;4.20;66.69;99001.72;10423565;28;20044;-76
2023/02/15 15:00:33;;;;;;;18.02;10.38;;;;;;;3.92;66.91;99004.81;10443293;28;20052;-76
2023/02/15 15:05:55;;;;;;;15.13;9.52;;;;;;;3.66;66.88;99004.56;10450207;28;20048;-76
2023/02/15 15:11:29;;;;;;;20.50;10.93;;;;;;;3.59;67.55;99005.91;10457184;28;20101;-76
2023/02/15 15:17:03;;;;;;;19.33;11.30;;;;;;;3.71;67.50;99012.06;10483928;28;20051;-75
2023/02/15 15:22:26;;;;;;;20.05;10.90;;;;;;;3.77;67.70;99003.75;10455422;28;20052;-75
2023/02/15 15:27:53;;;;;;;20.63;10.93;;;;;;;3.72;67.10;99003.25;10454392;28;20153;-75
2023/02/15 15:33:42;;;;;;;19.30;11.10;;;;;;;3.66;66.89;98999.81;10469275;28;20549;-76
2023/02/15 15:39:28;;;;;;;17.20;10.73;;;;;;;3.54;67.94;98987.38;10471789;28;20051;-76
2023/02/15 15:45:08;;;;;;;21.60;12.32;;;;;;;3.44;67.79;98975.19;10452517;28;20107;-76
2023/02/15 15:50:32;;;;;;;21.33;11.57;;;;;;;3.26;68.26;98973.84;10416003;28;20139;-75
2023/02/15 15:56:03;;;;;;;20.45;11.50;;;;;;;3.09;68.20;98984.28;10428206;28;20049;-76
2023/02/15 16:01:29;;;;;;;22.50;12.55;;;;;;;2.86;68.45;98972.66;10414094;28;20060;-76
2023/02/15 16:06:51;;;;;;;22.20;12.13;;;;;;;2.72;68.17;98979.28;10414350;28;20090;-75
2023/02/15 16:12:15;;;;;;;24.00;12.60;;;;;;;2.53;68.33;98973.66;10427470;28;20048;-77
2023/02/15 16:17:36;;;;;;;22.77;13.20;;;;;;;2.39;68.35;98977.47;10413742;28;20116;-75
2023/02/15 16:23:21;;;;;;;29.25;15.10;;;;;;;2.23;68.41;98977.06;10413548;28;20087;-75
2023/02/15 16:28:50;;;;;;;26.48;14.32;;;;;;;2.13;69.22;98983.38;10426952;28;20045;-77
2023/02/15 16:34:19;;;;;;;25.58;13.32;;;;;;;2.04;69.43;98992.69;10413515;28;20106;-76
2023/02/15 16:39:42;;;;;;;26.73;13.07;;;;;;;1.91;69.57;98984.19;10413752;28;20384;-76
2023/02/15 16:45:08;;;;;;;28.42;12.77;;;;;;;1.78;69.89;98987.50;10421467;28;20037;-77
2023/02/15 16:50:31;;;;;;;24.98;14.70;;;;;;;1.66;70.29;98975.03;10408181;28;20048;-76
2023/02/15 16:55:59;;;;;;;26.00;13.85;;;;;;;1.61;69.58;98981.28;10434276;28;20045;-76
2023/02/15 17:01:23;;;;;;;24.75;14.57;;;;;;;1.49;70.03;98977.81;10420475;28;20057;-76
2023/02/15 17:07:04;;;;;;;25.90;14.33;;;;;;;1.38;70.13;98980.59;10433929;28;20400;-75
2023/02/15 17:12:46;;;;;;;23.15;13.25;;;;;;;1.28;71.07;98980.09;10468817;28;20132;-74
2023/02/15 17:18:17;;;;;;;23.67;13.55;;;;;;;1.23;71.40;98972.59;10474459;28;20402;-75
2023/02/15 17:23:49;;;;;;;27.50;14.48;;;;;;;1.19;71.46;98972.09;10460606;28;20037;-76
2023/02/15 17:29:16;;;;;;;30.80;15.63;;;;;;;1.18;71.58;98981.59;10460525;28;20517;-76
2023/02/15 17:34:49;;;;;;;35.63;18.75;;;;;;;1.15;71.53;98979.84;10471466;28;20056;-75
2023/02/15 17:40:24;;;;;;;57.13;26.30;;;;;;;1.08;71.56;98978.38;10487567;28;20051;-75
2023/02/15 17:45:48;;;;;;;64.18;31.20;;;;;;;1.08;71.88;98977.63;10487534;28;20047;-76
2023/02/15 17:51:11;;;;;;;59.13;26.55;;;;;;;1.02;71.84;98965.84;10445775;28;20482;-76
2023/02/15 17:56:33;;;;;;;37.03;20.00;;;;;;;0.99;71.84;98959.38;10458814;28;20045;-76
2023/02/15 18:13:13;;;;;;;51.88;24.90;;;;;;;0.88;72.70;98947.63;10463329;28;20057;-74
2023/02/15 18:18:35;;;;;;;48.50;24.75;;;;;;;0.83;72.66;98949.09;10472047;28;20036;-75
2023/02/15 18:23:56;;;;;;;53.70;25.95;;;;;;;0.75;72.31;98948.84;10465841;28;20048;-75
2023/02/15 18:29:17;;;;;;;55.67;28.77;;;;;;;0.70;72.70;98955.09;10461532;28;20045;-77
2023/02/15 18:34:39;;;;;;;56.92;28.15;;;;;;;0.72;73.44;98952.59;10416731;28;20041;-76
2023/02/15 18:39:59;;;;;;;59.92;29.25;;;;;;;0.70;73.31;98955.09;10430234;28;20041;-78
2023/02/15 18:45:23;;;;;;;72.68;32.65;;;;;;;0.66;73.83;98948.34;10429976;28;20402;-76
2023/02/15 18:50:44;;;;;;;64.15;29.88;;;;;;;0.62;73.40;98947.84;10416192;28;20037;-74
2023/02/15 18:56:05;;;;;;;68.95;33.63;;;;;;;0.58;73.18;98959.09;10415840;28;20067;-74
2023/02/15 19:01:26;;;;;;;69.65;31.67;;;;;;;0.48;74.08;98952.31;10420683;28;20117;-77
2023/02/15 19:06:50;;;;;;;63.83;30.05;;;;;;;0.47;73.91;98953.56;10443500;28;20554;-74
2023/02/15 19:12:11;;;;;;;56.85;28.73;;;;;;;0.41;73.98;98950.81;10456348;28;20052;-75
2023/02/15 19:17:32;;;;;;;68.20;30.67;;;;;;;0.40;74.82;98948.56;10456235;28;20072;-74
2023/02/15 19:22:54;;;;;;;68.07;32.67;;;;;;;0.35;74.26;98930.06;10456194;28;20040;-73
2023/02/15 19:28:29;;;;;;;62.38;29.83;;;;;;;0.40;73.92;98932.09;10469815;28;20048;-72
2023/02/15 19:33:51;;;;;;;65.93;30.42;;;;;;;0.36;74.01;98942.56;10455755;28;20044;-73
2023/02/15 19:39:42;;;;;;;57.33;28.23;;;;;;;0.38;73.81;98926.31;10483365;28;20037;-75
2023/02/15 19:45:13;;;;;;;63.33;29.85;;;;;;;0.32;73.62;98931.81;10462144;28;20123;-75
2023/02/15 19:50:34;;;;;;;58.78;28.50;;;;;;;0.23;73.77;98930.06;10455239;28;20105;-75
2023/02/15 19:55:56;;;;;;;66.57;29.73;;;;;;;0.12;74.76;98941.00;10455036;28;20485;-74
2023/02/15 20:01:18;;;;;;;64.82;31.92;;;;;;;0.11;74.83;98938.78;10454157;28;20551;-75
2023/02/15 20:06:39;;;;;;;68.40;31.20;;;;;;;0.12;74.63;98935.53;10454746;28;20045;-73
2023/02/15 20:12:00;;;;;;;72.65;34.47;;;;;;;0.15;74.67;98934.53;10455460;28;20053;-73
2023/02/15 20:17:22;;;;;;;67.72;32.65;;;;;;;0.25;74.89;98944.03;10472868;28;20063;-73
2023/02/15 20:22:44;;;;;;;69.20;32.67;;;;;;;0.44;74.58;98938.06;10449444;28;20123;-72
2023/02/15 20:28:05;;;;;;;77.63;37.78;;;;;;;0.59;74.63;98935.13;10476463;28;20124;-75
2023/02/15 20:33:26;;;;;;;72.22;34.53;;;;;;;0.71;74.27;98936.63;10476543;28;20106;-75
2023/02/15 20:38:47;;;;;;;68.75;33.08;;;;;;;0.85;74.35;98947.34;10462765;28;20044;-76
2023/02/15 20:44:28;;;;;;;66.18;32.20;;;;;;;0.99;74.57;98928.38;10462619;28;20041;-76
2023/02/15 20:49:50;;;;;;;62.28;30.25;;;;;;;1.06;74.49;98930.59;10488684;28;20550;-75
2023/02/15 20:55:30;;;;;;;62.42;30.13;;;;;;;1.17;74.88;98916.84;10461245;28;20127;-76
2023/02/15 21:00:51;;;;;;;65.00;30.20;;;;;;;1.28;74.26;98905.81;10463802;28;20052;-76
2023/02/15 21:06:14;;;;;;;58.88;28.60;;;;;;;1.38;75.19;98901.53;10462673;28;20044;-76
2023/02/15 21:11:35;;;;;;;59.88;29.40;;;;;;;1.44;74.98;98890.50;10462739;28;20040;-76
2023/02/15 21:16:56;;;;;;;58.08;29.20;;;;;;;1.50;74.46;98896.75;10474574;28;20094;-75
2023/02/15 21:22:20;;;;;;;58.88;28.63;;;;;;;1.56;74.72;98889.22;10459294;28;20047;-75
2023/02/15 21:27:41;;;;;;;59.00;29.07;;;;;;;1.61;74.70;98893.94;10459589;28;20044;-75
2023/02/15 21:33:03;;;;;;;57.42;28.55;;;;;;;1.66;74.60;98892.44;10460264;28;20181;-75
2023/02/15 21:38:26;;;;;;;63.60;31.77;;;;;;;1.63;74.17;98896.94;10460080;28;20036;-75
2023/02/15 21:49:26;;;;;;;58.95;29.30;;;;;;;1.71;74.80;98894.41;10464414;28;20044;-76
2023/02/15 21:54:48;;;;;;;63.22;29.27;;;;;;;1.73;75.10;98891.91;10486953;28;20432;-76
2023/02/15 22:00:16;;;;;;;59.35;28.83;;;;;;;1.76;74.86;98895.66;10473045;28;20102;-75
2023/02/15 22:05:38;;;;;;;64.38;29.23;;;;;;;1.79;74.40;98886.38;10471568;28;20056;-75
2023/02/15 22:11:01;;;;;;;64.72;31.42;;;;;;;1.76;75.21;98879.16;10486794;28;20089;-75
2023/02/15 22:16:23;;;;;;;65.28;29.50;;;;;;;1.76;74.99;98874.38;10500299;28;20040;-75
2023/02/15 22:21:44;;;;;;;71.47;33.35;;;;;;;1.70;75.39;98874.41;10485976;28;20041;-75
2023/02/15 22:27:05;;;;;;;72.57;30.95;;;;;;;1.59;75.08;98873.72;10485577;28;20490;-75
2023/02/15 22:32:26;;;;;;;64.80;29.65;;;;;;;1.65;75.28;98875.19;10485594;28;20044;-75
2023/02/15 22:37:47;;;;;;;71.88;31.13;;;;;;;1.63;75.73;98866.66;10485387;28;20040;-75
2023/02/15 22:43:16;;;;;;;61.92;28.52;;;;;;;1.64;75.62;98867.41;10493806;28;20097;-76
2023/02/15 22:48:37;;;;;;;63.83;28.10;;;;;;;1.65;75.37;98874.44;10480932;28;20044;-76
2023/02/15 22:53:58;;;;;;;56.42;27.08;;;;;;;1.59;75.39;98877.22;10467154;28;20036;-76
2023/02/15 22:59:32;;;;;;;58.92;26.17;;;;;;;1.55;75.93;98870.47;10480808;28;20098;-76
2023/02/15 23:04:54;;;;;;;53.85;25.50;;;;;;;1.47;76.28;98864.00;10467269;28;20052;-76
2023/02/15 23:10:20;;;;;;;56.47;26.35;;;;;;;1.23;76.30;98861.81;10479742;28;20044;-75
2023/02/15 23:15:42;;;;;;;54.75;23.42;;;;;;;1.27;76.13;98865.06;10466039;28;20097;-76
2023/02/15 23:21:23;;;;;;;53.13;23.55;;;;;;;1.28;75.84;98866.56;10480516;28;20082;-76
2023/02/15 23:26:44;;;;;;;45.33;21.60;;;;;;;1.18;76.29;98860.59;10480409;28;20048;-76
2023/02/15 23:32:07;;;;;;;42.75;19.75;;;;;;;1.21;76.24;98856.81;10494234;28;20549;-75
2023/02/15 23:37:28;;;;;;;36.45;19.13;;;;;;;1.20;76.47;98852.56;10464145;28;20032;-76
2023/02/15 23:42:49;;;;;;;38.53;18.67;;;;;;;1.22;76.84;98857.56;10492115;28;20041;-76
2023/02/15 23:48:31;;;;;;;35.70;18.85;;;;;;;1.15;76.70;98850.56;10479029;28;20044;-76
2023/02/15 23:53:52;;;;;;;39.90;18.85;;;;;;;1.04;76.52;98856.84;10455580;28;20071;-75
2023/02/15 23:59:18;;;;;;;38.70;19.20;;;;;;;0.95;76.60;98854.38;10477449;28;20444;-76
